Terminal Aerodrome Forecast
Issued by NWS Green Bay, WI

Home | Current Version | Previous Version | Graphics & Text | Print | Product List | Glossary On
Versions: 1 2 3 4 5 6 7 8 9 10 11 12 13 14 15 16 17 18 19 20 21 22 23 24 25 26 27 28 29 30
000
FTUS43 KGRB 230200 AAC
TAFGRB
TAF AMD
KGRB 230200Z 2302/2324 VRB03KT 1/2SM FG OVC007
      TEMPO 2302/2305 1/4SM FG OVC003
     FM230500 30003KT 1/4SM -DZ FG OVC002
     FM231500 32004KT 1SM BR OVC003
     FM231700 33005KT 4SM BR OVC007
     FM232000 33005KT 5SM BR OVC012=

USA.gov is the U.S. government's official web portal to all federal, state and local government web resources and services.